Hidalgo, Texas
Current Conditions -  °F | °C
As of 12:53 AM on Friday 31 Oct 2014 (Local Time) from KMFE Reporting Station
Clear Clear  
Wind Chill: 73°   Ceiling: Unl
Heat Index: 73°   Visibility: 10mi
Dew Point: 68°   Wind: 3mph
Humidity: 84%   Direction: 120°ESE
Pressure: 30.08"   Gusts: NA
Location:  26.1°N, 98.26°W
Report Text: KMFE 310553Z AUTO 12003KT 10SM CLR 23/20 A3008 RMK AO2 SLP185 T02280200 10283 20222 403110206 51005
Loading
Personal Weather Stations






























Interactive Weather Map
Tropical Storm Tracking
New forecast layout! Learn more

10-Day Weather Forecast

Advertisements
Track Severe Weather on mobile